Time;durP1;ratioP1;P1;durP2;ratioP2;P2;SDS_P1;SDS_P2;PMS_P1;PMS_P2;Temp;Humidity;BMP_temperature;BMP_pressure;BME280_temperature;BME280_humidity;BME280_pressure;Samples;Min_cycle;Max_cycle;Signal;HPM_P1;HPM_P2
2021/12/19 00:09:21;;;;;;;8.63;3.95;;;;;;;5.03;100.00;103840.81;4994157;28;20053;-76
2021/12/19 00:11:46;;;;;;;8.68;3.78;;;;;;;5.05;100.00;103838.22;4994120;28;20030;-77
2021/12/19 00:14:11;;;;;;;10.40;4.10;;;;;;;5.04;100.00;103829.47;4994217;28;20042;-78
2021/12/19 00:16:37;;;;;;;9.85;4.50;;;;;;;5.06;100.00;103832.13;4991830;28;20069;-77
2021/12/19 00:19:03;;;;;;;8.65;4.18;;;;;;;5.05;100.00;103818.13;4975263;28;20031;-75
2021/12/19 00:21:28;;;;;;;17.10;4.47;;;;;;;5.03;100.00;103813.69;4974699;28;20038;-76
2021/12/19 00:23:54;;;;;;;12.35;4.20;;;;;;;5.06;100.00;103813.75;4974713;28;20426;-76
2021/12/19 00:26:20;;;;;;;11.45;4.20;;;;;;;5.07;100.00;103813.78;4990400;28;20180;-76
2021/12/19 00:28:47;;;;;;;11.40;3.92;;;;;;;5.07;100.00;103811.16;4981620;28;20160;-75
2021/12/19 00:31:12;;;;;;;12.23;4.28;;;;;;;5.09;100.00;103817.34;4974184;28;20035;-77
2021/12/19 00:33:40;;;;;;;12.27;4.63;;;;;;;5.12;100.00;103810.41;4974215;28;20046;-76
2021/12/19 00:36:07;;;;;;;12.98;4.25;;;;;;;5.14;100.00;103808.69;4974253;28;20070;-77
2021/12/19 00:38:32;;;;;;;13.15;4.97;;;;;;;5.16;100.00;103807.00;4977683;28;20443;-77
2021/12/19 00:40:59;;;;;;;16.95;4.90;;;;;;;5.09;100.00;103808.59;5005372;28;20069;-73
2021/12/19 00:43:34;;;;;;;10.18;4.57;;;;;;;5.11;100.00;103799.00;5015619;28;20068;-76
2021/12/19 00:46:06;;;;;;;15.38;5.35;;;;;;;5.18;100.00;103805.28;5015204;28;20057;-76
2021/12/19 00:48:32;;;;;;;17.15;5.05;;;;;;;5.16;100.00;103800.00;5019720;28;20104;-76
2021/12/19 00:50:58;;;;;;;12.57;4.85;;;;;;;5.23;100.00;103801.03;5034979;28;20036;-75
2021/12/19 00:53:23;;;;;;;9.55;4.53;;;;;;;5.24;100.00;103790.59;5034865;28;20112;-77
2021/12/19 00:55:48;;;;;;;14.23;5.50;;;;;;;5.27;100.00;103791.50;5034813;28;20396;-76
2021/12/19 00:58:14;;;;;;;13.95;4.97;;;;;;;5.33;100.00;103789.94;5033911;28;20029;-76
2021/12/19 01:00:39;;;;;;;13.10;5.32;;;;;;;5.29;100.00;103789.81;5033961;28;20565;-76
2021/12/19 01:03:05;;;;;;;14.57;5.35;;;;;;;5.29;100.00;103784.56;5034479;28;20087;-76
2021/12/19 01:05:35;;;;;;;16.88;5.50;;;;;;;5.31;100.00;103783.75;5034989;28;20068;-77
2021/12/19 01:08:01;;;;;;;13.00;5.28;;;;;;;5.34;100.00;103785.56;5034917;28;20029;-76
2021/12/19 01:10:26;;;;;;;9.93;4.50;;;;;;;5.36;100.00;103781.22;5034005;28;20098;-76
2021/12/19 01:12:52;;;;;;;15.23;5.68;;;;;;;5.42;100.00;103781.34;5034615;28;20033;-76
2021/12/19 01:15:19;;;;;;;16.60;5.97;;;;;;;5.36;100.00;103778.59;5034463;28;20049;-72
2021/12/19 01:17:45;;;;;;;14.18;5.90;;;;;;;5.42;100.00;103776.09;5034415;28;20025;-76
2021/12/19 01:20:20;;;;;;;19.63;6.10;;;;;;;5.45;100.00;103768.31;5033819;28;20025;-76
2021/12/19 01:22:47;;;;;;;16.02;5.95;;;;;;;5.48;100.00;103778.00;5034492;28;20069;-76
2021/12/19 01:25:13;;;;;;;17.25;6.00;;;;;;;5.52;100.00;103777.22;5034575;28;20025;-76
2021/12/19 01:27:39;;;;;;;18.40;6.65;;;;;;;5.46;100.00;103764.84;5034562;28;20373;-77
2021/12/19 01:30:07;;;;;;;18.50;6.00;;;;;;;5.50;100.00;103773.66;5034081;28;20029;-76
2021/12/19 01:32:33;;;;;;;17.50;6.13;;;;;;;5.50;100.00;103771.03;5033518;28;20033;-76
2021/12/19 01:34:58;;;;;;;18.98;5.70;;;;;;;5.50;100.00;103765.75;5033734;28;20053;-75
2021/12/19 01:37:24;;;;;;;16.25;5.82;;;;;;;5.47;100.00;103765.72;5034285;28;20029;-76
2021/12/19 01:39:49;;;;;;;19.00;5.70;;;;;;;5.51;100.00;103771.09;5033858;28;20029;-76
2021/12/19 01:42:19;;;;;;;14.80;6.38;;;;;;;5.47;100.00;103763.94;5033215;28;20045;-76
2021/12/19 01:44:45;;;;;;;17.48;5.32;;;;;;;5.51;100.00;103757.94;5034084;28;20022;-77
2021/12/19 01:47:11;;;;;;;15.57;5.72;;;;;;;5.50;100.00;103756.16;5033963;28;20029;-76
2021/12/19 01:49:36;;;;;;;17.73;4.97;;;;;;;5.51;100.00;103755.31;5033815;28;20032;-76
2021/12/19 01:52:03;;;;;;;17.50;5.60;;;;;;;5.54;100.00;103754.50;5033126;28;20064;-76
2021/12/19 01:54:28;;;;;;;23.15;6.25;;;;;;;5.52;100.00;103750.94;5033919;28;20047;-76
2021/12/19 01:56:53;;;;;;;19.48;5.75;;;;;;;5.52;100.00;103754.44;5033681;28;20051;-77
2021/12/19 01:59:19;;;;;;;23.23;6.60;;;;;;;5.53;100.00;103755.34;5033767;28;20494;-76
2021/12/19 02:01:48;;;;;;;18.15;5.88;;;;;;;5.54;100.00;103754.50;5033654;28;20087;-76
2021/12/19 02:04:16;;;;;;;20.60;6.47;;;;;;;5.52;100.00;103743.03;5033164;28;20021;-77
2021/12/19 02:06:42;;;;;;;16.30;6.05;;;;;;;5.52;100.00;103746.53;5033805;28;20033;-76
2021/12/19 02:09:08;;;;;;;18.60;5.78;;;;;;;5.56;100.00;103750.16;5033288;28;20033;-77
2021/12/19 02:11:34;;;;;;;17.48;5.75;;;;;;;5.57;100.00;103747.53;5033274;28;20392;-76
2021/12/19 02:14:00;;;;;;;14.13;4.75;;;;;;;5.62;100.00;103744.16;5032555;28;20063;-76
2021/12/19 02:16:25;;;;;;;11.25;4.15;;;;;;;5.73;100.00;103750.53;5033645;28;20064;-76
2021/12/19 02:18:51;;;;;;;13.88;4.30;;;;;;;5.74;100.00;103739.16;5033285;28;20104;-76
2021/12/19 02:21:16;;;;;;;10.75;3.58;;;;;;;5.75;100.00;103740.94;5033353;28;20027;-76
2021/12/19 02:23:42;;;;;;;8.02;3.30;;;;;;;5.72;100.00;103725.09;5032851;28;20109;-76
2021/12/19 02:26:07;;;;;;;8.55;3.10;;;;;;;5.74;100.00;103734.81;5032643;28;20052;-76
2021/12/19 02:28:33;;;;;;;7.90;2.97;;;;;;;5.78;100.00;103721.72;5033189;28;20060;-77
2021/12/19 02:30:58;;;;;;;7.00;3.05;;;;;;;5.79;100.00;103727.00;5033542;28;20060;-77
2021/12/19 02:33:26;;;;;;;7.35;3.08;;;;;;;5.81;100.00;103727.03;5032506;28;20116;-76
2021/12/19 02:36:02;;;;;;;7.03;2.92;;;;;;;5.84;100.00;103716.59;5032704;28;20132;-76
2021/12/19 02:49:31;;;;;;;10.20;3.47;;;;;;;5.81;100.00;103711.28;5032787;28;20445;-73
2021/12/19 02:51:57;;;;;;;10.93;3.63;;;;;;;5.81;100.00;103706.88;5033090;28;20028;-76
2021/12/19 02:54:24;;;;;;;11.15;4.20;;;;;;;5.83;100.00;103710.44;5032266;28;20025;-77
2021/12/19 02:56:50;;;;;;;14.07;4.40;;;;;;;5.83;100.00;103699.94;5032401;28;20469;-77
2021/12/19 02:59:15;;;;;;;15.07;4.40;;;;;;;5.85;100.00;103692.94;5032683;28;20025;-78
2021/12/19 03:01:43;;;;;;;17.10;5.20;;;;;;;5.88;100.00;103693.03;5032794;28;20489;-77
2021/12/19 03:04:08;;;;;;;18.30;5.40;;;;;;;5.92;100.00;103693.97;5032185;28;20056;-75
2021/12/19 03:06:34;;;;;;;15.30;4.70;;;;;;;5.94;100.00;103687.00;5031840;28;20030;-77
2021/12/19 03:09:05;;;;;;;14.82;5.57;;;;;;;5.98;100.00;103686.22;5032683;28;20389;-74
2021/12/19 03:12:02;;;;;;;13.10;5.10;;;;;;;5.97;100.00;103683.53;5032908;28;20053;-77
2021/12/19 03:19:47;;;;;;;13.57;4.80;;;;;;;5.94;100.00;103660.69;5032703;28;20044;-77
2021/12/19 03:22:12;;;;;;;13.55;4.13;;;;;;;5.90;100.00;103656.22;5035526;28;20030;-78
2021/12/19 03:24:37;;;;;;;10.70;4.00;;;;;;;5.93;100.00;103655.41;5036551;28;20033;-77
2021/12/19 03:27:03;;;;;;;11.65;4.22;;;;;;;5.93;100.00;103651.00;5035887;28;20034;-77
2021/12/19 03:29:28;;;;;;;8.65;4.00;;;;;;;5.92;100.00;103646.63;5036900;28;20036;-78
2021/12/19 03:31:54;;;;;;;9.00;3.67;;;;;;;5.96;100.00;103631.78;5036162;28;20048;-77
2021/12/19 03:34:19;;;;;;;10.70;4.10;;;;;;;5.94;100.00;103636.13;5036313;28;20139;-78
2021/12/19 03:36:45;;;;;;;9.10;3.75;;;;;;;5.93;100.00;103626.47;5035932;28;20119;-77
2021/12/19 03:39:24;;;;;;;12.68;4.45;;;;;;;5.96;100.00;103630.06;5036231;28;20119;-77
2021/12/19 03:41:50;;;;;;;16.25;4.65;;;;;;;5.97;100.00;103612.50;5035807;28;20482;-77
2021/12/19 03:44:15;;;;;;;15.27;5.07;;;;;;;5.96;100.00;103622.16;5036344;28;20032;-77
2021/12/19 03:46:41;;;;;;;13.55;4.70;;;;;;;5.96;100.00;103613.34;5035880;28;20025;-76
2021/12/19 03:49:06;;;;;;;11.50;4.00;;;;;;;5.96;100.00;103619.53;5035773;28;20067;-77
2021/12/19 03:51:31;;;;;;;8.73;3.13;;;;;;;6.01;100.00;103619.63;5035597;28;20052;-77
2021/12/19 03:53:57;;;;;;;13.52;2.97;;;;;;;6.05;100.00;103621.50;5036231;28;20531;-77
2021/12/19 03:56:22;;;;;;;7.63;2.85;;;;;;;6.04;100.00;103623.22;5035983;28;20371;-77
2021/12/19 03:58:47;;;;;;;7.88;2.83;;;;;;;6.02;100.00;103613.50;5035344;28;20489;-77
2021/12/19 04:01:13;;;;;;;8.60;2.70;;;;;;;5.99;100.00;103614.34;5035852;28;20029;-76
2021/12/19 04:03:40;;;;;;;9.35;3.10;;;;;;;6.00;100.00;103615.25;5035650;28;20047;-77
2021/12/19 04:06:05;;;;;;;13.27;2.90;;;;;;;6.01;100.00;103617.00;5036059;28;20025;-77
2021/12/19 04:08:31;;;;;;;9.77;2.92;;;;;;;6.02;100.00;103606.53;5035547;28;20086;-76
2021/12/19 04:10:56;;;;;;;10.63;3.35;;;;;;;6.03;100.00;103594.25;5035964;28;20033;-77
2021/12/19 04:13:23;;;;;;;9.30;3.45;;;;;;;6.03;100.00;103597.75;5035333;28;20045;-77
2021/12/19 04:15:49;;;;;;;10.27;3.10;;;;;;;6.05;100.00;103596.06;5035886;28;20037;-77
2021/12/19 04:18:15;;;;;;;8.95;3.00;;;;;;;6.06;100.00;103589.94;5035216;28;20082;-77
2021/12/19 04:20:40;;;;;;;9.77;3.03;;;;;;;6.09;100.00;103591.75;5035305;28;20041;-77
2021/12/19 04:23:06;;;;;;;11.38;4.03;;;;;;;6.12;100.00;103589.16;5026451;28;20034;-77
2021/12/19 04:25:32;;;;;;;9.02;3.28;;;;;;;6.14;100.00;103576.91;5015747;28;20025;-77
2021/12/19 04:27:57;;;;;;;10.05;3.50;;;;;;;6.15;100.00;103583.06;5015696;28;20033;-78
2021/12/19 04:30:25;;;;;;;8.30;3.05;;;;;;;6.20;100.00;103582.28;5033403;28;20025;-77
2021/12/19 04:33:08;;;;;;;7.35;2.38;;;;;;;6.19;100.00;103582.25;5035894;28;20085;-76
2021/12/19 04:35:36;;;;;;;5.75;2.42;;;;;;;6.12;100.00;103588.28;5015531;28;20049;-76
2021/12/19 04:40:39;;;;;;;6.85;2.55;;;;;;;6.05;100.00;103575.00;5027103;28;20041;-73
2021/12/19 04:54:24;;;;;;;9.02;3.25;;;;;;;6.11;100.00;103561.06;5034911;28;20037;-73
2021/12/19 05:15:23;;;;;;;11.52;4.07;;;;;;;6.19;100.00;103566.47;4993142;28;20106;-77
2021/12/19 05:17:49;;;;;;;9.20;3.50;;;;;;;6.18;100.00;103573.47;4993022;28;20042;-76
2021/12/19 05:20:19;;;;;;;7.68;2.85;;;;;;;6.15;100.00;103576.06;4993022;28;20034;-77
2021/12/19 05:22:49;;;;;;;8.43;3.00;;;;;;;6.15;100.00;103576.06;4992435;28;20432;-77
2021/12/19 05:25:17;;;;;;;6.43;2.58;;;;;;;6.15;100.00;103569.91;4992421;28;20034;-77
2021/12/19 05:27:48;;;;;;;6.80;2.38;;;;;;;6.12;100.00;103569.84;4992612;28;20036;-77
2021/12/19 05:30:15;;;;;;;7.05;2.40;;;;;;;6.11;100.00;103570.72;4992790;28;20034;-77
2021/12/19 05:32:43;;;;;;;6.72;2.30;;;;;;;6.11;100.00;103583.88;4992566;28;20037;-77
2021/12/19 05:35:11;;;;;;;6.85;2.28;;;;;;;6.12;100.00;103572.50;4991403;28;20054;-76
2021/12/19 05:45:50;;;;;;;6.45;2.05;;;;;;;6.14;100.00;103555.88;5033275;28;20052;-77
2021/12/19 05:48:16;;;;;;;6.82;2.13;;;;;;;6.14;100.00;103554.97;5033911;28;20030;-77
2021/12/19 05:50:42;;;;;;;5.95;2.38;;;;;;;6.14;100.00;103562.84;5033975;28;20037;-78
2021/12/19 05:53:10;;;;;;;8.48;2.35;;;;;;;6.14;100.00;103565.50;5034109;28;20026;-78
2021/12/19 05:55:35;;;;;;;4.07;1.70;;;;;;;6.11;100.00;103553.16;5033225;28;20022;-77
2021/12/19 05:58:00;;;;;;;5.78;1.92;;;;;;;6.13;100.00;103555.84;5033511;28;20075;-76
2021/12/19 06:00:26;;;;;;;6.32;1.90;;;;;;;6.12;100.00;103554.94;5033382;28;20060;-79
2021/12/19 06:02:51;;;;;;;4.90;1.92;;;;;;;6.12;100.00;103556.72;5033695;28;20466;-77
2021/12/19 06:05:17;;;;;;;7.20;2.10;;;;;;;6.14;100.00;103544.44;5033428;28;20021;-78
2021/12/19 06:07:43;;;;;;;5.68;1.70;;;;;;;6.13;100.00;103543.56;5033278;28;20060;-77
2021/12/19 06:10:09;;;;;;;5.05;1.60;;;;;;;6.12;100.00;103538.28;5033421;28;20029;-78
2021/12/19 06:12:37;;;;;;;4.03;1.58;;;;;;;6.12;100.00;103543.56;5033781;28;20032;-77
2021/12/19 06:15:02;;;;;;;6.07;1.90;;;;;;;6.12;100.00;103533.03;5033832;28;20088;-77
2021/12/19 06:17:28;;;;;;;5.45;1.80;;;;;;;6.13;100.00;103540.06;5032804;28;20033;-78
2021/12/19 06:19:53;;;;;;;4.97;2.47;;;;;;;6.15;100.00;103531.34;5033470;28;20032;-75
2021/12/19 06:22:18;;;;;;;5.68;2.42;;;;;;;6.17;100.00;103526.09;5033606;28;20073;-77
2021/12/19 06:24:44;;;;;;;4.00;1.75;;;;;;;6.14;100.00;103531.28;5033198;28;20107;-76
2021/12/19 06:27:09;;;;;;;5.20;2.08;;;;;;;6.14;100.00;103531.28;5032767;28;20029;-73
2021/12/19 06:29:35;;;;;;;6.72;2.17;;;;;;;6.11;100.00;103524.22;5032702;28;20033;-73
2021/12/19 06:32:00;;;;;;;4.32;1.95;;;;;;;6.12;100.00;103539.16;5033499;28;20029;-73
2021/12/19 06:34:25;;;;;;;5.18;1.80;;;;;;;6.13;100.00;103521.66;5033209;28;20041;-74
2021/12/19 06:36:52;;;;;;;5.35;2.05;;;;;;;6.14;100.00;103526.94;5032538;28;20037;-73
2021/12/19 06:39:19;;;;;;;7.32;2.40;;;;;;;6.15;100.00;103522.53;5032697;28;20067;-78
2021/12/19 06:41:44;;;;;;;6.90;2.10;;;;;;;6.14;100.00;103510.25;5029909;28;20041;-76
2021/12/19 06:44:10;;;;;;;4.88;2.00;;;;;;;6.11;100.00;103508.44;5027079;28;20049;-77
2021/12/19 06:46:35;;;;;;;7.13;2.10;;;;;;;6.09;100.00;103517.16;5012999;28;20021;-77
2021/12/19 06:49:01;;;;;;;8.75;2.22;;;;;;;6.04;100.00;103510.09;5022944;28;20036;-77
2021/12/19 06:51:26;;;;;;;6.20;1.90;;;;;;;6.04;100.00;103517.13;5032759;28;20120;-77
2021/12/19 06:53:51;;;;;;;6.15;1.92;;;;;;;6.00;100.00;103512.66;5032881;28;20056;-76
2021/12/19 06:56:16;;;;;;;6.10;1.73;;;;;;;5.97;100.00;103507.28;5032659;28;20036;-77
2021/12/19 06:58:42;;;;;;;6.35;1.85;;;;;;;5.95;100.00;103504.66;5032374;28;20026;-77
2021/12/19 07:01:07;;;;;;;5.55;1.60;;;;;;;5.95;100.00;103499.38;5031867;28;20412;-78
2021/12/19 07:03:33;;;;;;;3.83;1.80;;;;;;;5.96;100.00;103497.63;5032198;28;20423;-78
2021/12/19 07:05:59;;;;;;;4.35;1.60;;;;;;;5.98;100.00;103499.47;5032124;28;20033;-77
2021/12/19 07:08:24;;;;;;;4.20;1.58;;;;;;;5.96;100.00;103501.16;5032690;28;20032;-78
2021/12/19 07:10:51;;;;;;;2.80;1.40;;;;;;;5.95;100.00;103498.50;5032279;28;20052;-74
2021/12/19 07:13:20;;;;;;;4.47;1.40;;;;;;;5.97;100.00;103502.94;5031979;28;20087;-77
2021/12/19 07:15:49;;;;;;;3.75;1.55;;;;;;;5.96;100.00;103503.78;5031551;28;20037;-77
2021/12/19 07:18:15;;;;;;;3.40;1.20;;;;;;;5.90;100.00;103501.06;5032245;28;20029;-77
2021/12/19 07:20:43;;;;;;;2.65;1.27;;;;;;;5.89;100.00;103499.28;5032655;28;20082;-77
2021/12/19 07:23:15;;;;;;;5.18;1.23;;;;;;;5.84;100.00;103506.19;5032010;28;20493;-77
2021/12/19 07:25:41;;;;;;;4.38;1.10;;;;;;;5.82;100.00;103500.91;5032602;28;20021;-78
2021/12/19 07:28:07;;;;;;;7.65;1.40;;;;;;;5.83;100.00;103491.28;5032524;28;20056;-78
2021/12/19 07:30:35;;;;;;;4.30;1.90;;;;;;;5.84;100.00;103493.91;5032558;28;20057;-76
2021/12/19 07:33:01;;;;;;;5.10;1.65;;;;;;;5.85;100.00;103489.56;5032169;28;20041;-77
2021/12/19 07:35:27;;;;;;;4.72;1.60;;;;;;;5.83;100.00;103494.81;5032356;28;20045;-78
2021/12/19 07:37:55;;;;;;;3.95;1.63;;;;;;;5.85;100.00;103497.47;5032374;28;20104;-77
2021/12/19 07:40:22;;;;;;;4.07;1.88;;;;;;;5.86;100.00;103492.22;5032392;28;20029;-77
2021/12/19 07:42:48;;;;;;;3.85;1.67;;;;;;;5.88;100.00;103497.50;5031706;28;20405;-76
2021/12/19 07:45:15;;;;;;;4.45;1.90;;;;;;;5.88;100.00;103490.50;5031405;28;20037;-74
2021/12/19 07:47:42;;;;;;;6.63;3.20;;;;;;;5.90;100.00;103490.53;5026497;28;20484;-77
2021/12/19 07:50:09;;;;;;;5.63;2.28;;;;;;;5.91;100.00;103492.31;5022950;28;20382;-78
2021/12/19 07:52:34;;;;;;;6.28;2.10;;;;;;;5.95;100.00;103493.25;5032249;28;20030;-74
2021/12/19 07:54:59;;;;;;;12.93;4.03;;;;;;;5.95;100.00;103491.50;5032232;28;20166;-76
2021/12/19 07:57:25;;;;;;;8.45;2.83;;;;;;;5.97;100.00;103491.53;5032154;28;20029;-78
2021/12/19 07:59:51;;;;;;;10.27;3.25;;;;;;;5.98;100.00;103499.47;5031287;28;20378;-76
2021/12/19 08:02:17;;;;;;;8.82;3.35;;;;;;;6.01;100.00;103496.00;5023951;28;21334;-76
2021/12/19 08:04:42;;;;;;;10.52;4.20;;;;;;;6.03;100.00;103489.03;5029225;28;20025;-77
2021/12/19 08:07:11;;;;;;;9.75;3.60;;;;;;;6.02;100.00;103492.50;5023964;28;20029;-75
2021/12/19 08:09:39;;;;;;;7.18;3.05;;;;;;;6.02;100.00;103490.78;5034628;28;20029;-77
2021/12/19 08:12:05;;;;;;;8.02;2.90;;;;;;;6.04;100.00;103486.41;5036268;28;20021;-75
2021/12/19 08:14:31;;;;;;;7.25;2.75;;;;;;;6.03;100.00;103489.03;5035183;28;20033;-73
2021/12/19 08:16:56;;;;;;;7.57;3.03;;;;;;;6.04;100.00;103483.78;5034602;28;20029;-78
2021/12/19 08:19:22;;;;;;;7.07;2.60;;;;;;;6.04;100.00;103485.53;5036187;28;20061;-77
2021/12/19 08:21:47;;;;;;;3.92;2.05;;;;;;;6.06;100.00;103483.81;5038892;28;20032;-78
2021/12/19 08:24:14;;;;;;;5.35;2.22;;;;;;;6.06;100.00;103476.81;5037847;28;20100;-78
2021/12/19 08:26:41;;;;;;;3.70;1.80;;;;;;;6.06;100.00;103465.38;5035064;28;20030;-78
2021/12/19 08:29:08;;;;;;;6.03;1.80;;;;;;;6.05;100.00;103464.53;5035515;28;20021;-77
2021/12/19 08:31:33;;;;;;;3.17;1.83;;;;;;;6.07;100.00;103473.34;5035436;28;20049;-78
2021/12/19 08:33:59;;;;;;;4.57;1.83;;;;;;;6.11;100.00;103476.88;5035776;28;20473;-78
2021/12/19 08:36:25;;;;;;;4.05;2.10;;;;;;;6.13;100.00;103472.53;5015677;28;20470;-76
2021/12/19 08:38:50;;;;;;;5.82;1.77;;;;;;;6.20;100.00;103461.25;5015506;28;20041;-78
2021/12/19 08:41:16;;;;;;;3.90;1.52;;;;;;;6.24;100.00;103464.81;5015952;28;20022;-78
2021/12/19 08:43:41;;;;;;;4.75;1.50;;;;;;;6.28;100.00;103474.53;5015393;28;20038;-75
2021/12/19 08:46:09;;;;;;;4.82;1.80;;;;;;;6.28;100.00;103471.91;5015094;28;20057;-79
2021/12/19 08:48:35;;;;;;;5.28;1.77;;;;;;;6.26;100.00;103465.72;5015255;28;20401;-78
2021/12/19 08:51:00;;;;;;;4.03;1.85;;;;;;;6.28;100.00;103468.38;5015421;28;20374;-77
2021/12/19 08:53:26;;;;;;;3.47;1.80;;;;;;;6.29;100.00;103460.53;5015530;28;20057;-78
2021/12/19 08:55:51;;;;;;;5.30;2.83;;;;;;;6.32;100.00;103459.69;5015063;28;20065;-77
2021/12/19 08:58:16;;;;;;;4.18;2.17;;;;;;;6.33;100.00;103464.97;5014933;28;20026;-77
2021/12/19 09:00:42;;;;;;;6.65;2.72;;;;;;;6.37;100.00;103466.78;5014622;28;20045;-75
2021/12/19 09:03:08;;;;;;;3.25;1.85;;;;;;;6.37;100.00;103460.63;5015528;28;20033;-76
2021/12/19 09:05:35;;;;;;;4.10;2.00;;;;;;;6.41;100.00;103465.06;5014777;28;20022;-76
2021/12/19 09:08:01;;;;;;;3.08;1.77;;;;;;;6.40;100.00;103452.78;5009179;28;20029;-76
2021/12/19 09:10:27;;;;;;;4.53;2.30;;;;;;;6.44;100.00;103456.34;5009658;28;20431;-76
2021/12/19 09:12:53;;;;;;;4.60;2.83;;;;;;;6.39;100.00;103446.63;5009104;28;20032;-77
2021/12/19 09:15:19;;;;;;;7.15;2.80;;;;;;;6.43;100.00;103462.47;5004134;28;20023;-77
2021/12/19 09:17:45;;;;;;;7.25;2.00;;;;;;;6.44;100.00;103465.09;4996221;28;20026;-76
2021/12/19 09:20:11;;;;;;;5.90;1.70;;;;;;;6.46;100.00;103458.13;5010893;28;20500;-77
2021/12/19 09:22:37;;;;;;;4.32;1.98;;;;;;;6.49;100.00;103462.56;5009551;28;20096;-78
2021/12/19 09:25:03;;;;;;;3.08;1.83;;;;;;;6.53;100.00;103464.38;5008406;28;20028;-71
2021/12/19 09:27:28;;;;;;;3.55;1.80;;;;;;;6.53;100.00;103457.38;5013985;28;20033;-75
2021/12/19 09:29:54;;;;;;;4.05;2.00;;;;;;;6.53;100.00;103456.47;5004260;28;20022;-76
2021/12/19 09:32:19;;;;;;;2.75;1.40;;;;;;;6.50;100.00;103456.44;5007546;28;20041;-76
2021/12/19 09:34:45;;;;;;;3.25;1.90;;;;;;;6.52;100.00;103455.59;5010556;28;20044;-76
2021/12/19 09:37:12;;;;;;;7.63;2.10;;;;;;;6.51;100.00;103451.19;5030303;28;20552;-75
2021/12/19 09:39:39;;;;;;;8.13;2.42;;;;;;;6.54;100.00;103450.34;5028215;28;20118;-77
2021/12/19 09:42:09;;;;;;;3.38;1.98;;;;;;;6.54;100.00;103450.34;5030807;28;20429;-77
2021/12/19 09:44:38;;;;;;;2.75;1.90;;;;;;;6.53;100.00;103454.72;5032745;28;20032;-74
2021/12/19 09:47:07;;;;;;;3.88;2.28;;;;;;;6.55;100.00;103457.38;5034032;28;20022;-74
2021/12/19 09:49:34;;;;;;;8.88;3.60;;;;;;;6.62;100.00;103451.31;5031475;28;20025;-77
2021/12/19 09:52:01;;;;;;;6.75;2.40;;;;;;;6.72;100.00;103452.34;5029750;28;20028;-77
2021/12/19 09:54:27;;;;;;;3.08;1.70;;;;;;;6.84;100.00;103459.50;5023842;28;20029;-77
2021/12/19 09:56:52;;;;;;;2.67;1.77;;;;;;;6.86;100.00;103449.88;5022890;28;20017;-78
2021/12/19 09:59:20;;;;;;;3.10;1.60;;;;;;;6.88;100.00;103448.16;5026081;28;20030;-78
2021/12/19 10:01:47;;;;;;;2.40;1.50;;;;;;;6.77;100.00;103455.91;5027556;28;20507;-75
2021/12/19 10:04:34;;;;;;;3.00;1.70;;;;;;;6.76;100.00;103456.78;5030492;28;20025;-77
2021/12/19 10:07:07;;;;;;;2.13;1.50;;;;;;;6.83;100.00;103463.00;5032989;28;20100;-78
2021/12/19 10:09:32;;;;;;;3.50;1.33;;;;;;;6.81;100.00;103454.22;5030704;28;20072;-78
2021/12/19 10:12:22;;;;;;;4.15;1.60;;;;;;;6.78;100.00;103456.78;5032411;28;20025;-76
2021/12/19 10:14:48;;;;;;;5.70;1.70;;;;;;;6.82;100.00;103446.31;5033398;28;20022;-78
2021/12/19 10:17:18;;;;;;;2.72;1.55;;;;;;;6.86;100.00;103434.09;5032710;28;20027;-78
2021/12/19 10:19:43;;;;;;;6.28;2.17;;;;;;;6.89;100.00;103442.00;5033076;28;20124;-81
2021/12/19 10:22:27;;;;;;;5.43;1.80;;;;;;;6.91;100.00;103432.41;5041468;28;20116;-76
2021/12/19 10:24:54;;;;;;;3.50;2.40;;;;;;;6.97;100.00;103439.47;5040332;28;20025;-77
2021/12/19 10:27:37;;;;;;;2.97;1.95;;;;;;;6.93;100.00;103425.41;5034503;28;20037;-77
2021/12/19 10:30:18;;;;;;;4.85;2.05;;;;;;;6.92;100.00;103428.00;5028179;28;20045;-77
2021/12/19 10:32:56;;;;;;;4.55;1.98;;;;;;;6.90;100.00;103420.09;5025138;28;20029;-76
2021/12/19 10:35:25;;;;;;;5.82;2.92;;;;;;;6.90;100.00;103417.44;5032741;28;20062;-77
2021/12/19 10:37:50;;;;;;;3.83;2.10;;;;;;;6.92;100.00;103418.38;5032651;28;20025;-77
2021/12/19 10:40:16;;;;;;;5.43;2.13;;;;;;;6.92;100.00;103423.63;5032448;28;20402;-77
2021/12/19 10:42:52;;;;;;;10.20;2.90;;;;;;;6.91;100.00;103420.97;5031533;28;20473;-75
2021/12/19 10:45:30;;;;;;;7.00;3.20;;;;;;;6.95;100.00;103410.47;5031107;28;20378;-76
2021/12/19 10:48:19;;;;;;;7.57;2.70;;;;;;;6.97;100.00;103405.22;5030843;28;20029;-78
2021/12/19 10:51:06;;;;;;;5.55;2.95;;;;;;;6.99;100.00;103396.47;5029141;28;20022;-77
2021/12/19 10:53:43;;;;;;;9.63;3.03;;;;;;;7.01;100.00;103400.03;5032626;28;20100;-78
2021/12/19 10:56:17;;;;;;;6.75;2.80;;;;;;;6.97;100.00;103389.41;5034523;28;20037;-77
2021/12/19 10:58:55;;;;;;;7.53;3.45;;;;;;;6.96;100.00;103390.31;5023301;28;20041;-77
2021/12/19 11:01:44;;;;;;;8.65;3.53;;;;;;;6.96;100.00;103393.81;5028222;28;20040;-77
2021/12/19 11:04:13;;;;;;;6.90;3.30;;;;;;;6.97;100.00;103379.78;5026613;28;20025;-74
2021/12/19 11:06:56;;;;;;;9.43;4.18;;;;;;;7.00;100.00;103371.03;5023331;28;20060;-77
2021/12/19 11:09:23;;;;;;;7.32;3.65;;;;;;;7.02;100.00;103375.44;5030219;28;20086;-77
2021/12/19 11:11:50;;;;;;;41.95;24.50;;;;;;;7.03;100.00;103371.94;5031972;28;20038;-78
2021/12/19 11:14:54;;;;;;;10.23;3.65;;;;;;;7.03;100.00;103369.31;5032412;28;20063;-77
2021/12/19 11:17:22;;;;;;;11.85;3.78;;;;;;;7.08;100.00;103365.84;4990112;28;20034;-78
2021/12/19 11:19:50;;;;;;;14.60;4.05;;;;;;;7.07;100.00;103357.03;4989726;28;20044;-78
2021/12/19 11:22:23;;;;;;;12.63;3.38;;;;;;;7.07;100.00;103357.03;4990818;28;20042;-78
2021/12/19 11:24:52;;;;;;;9.85;3.83;;;;;;;7.04;100.00;103362.28;4990405;28;20042;-79
2021/12/19 11:27:18;;;;;;;9.73;3.42;;;;;;;6.97;100.00;103358.72;4990946;28;20041;-78
2021/12/19 11:29:45;;;;;;;11.70;3.33;;;;;;;7.01;100.00;103352.59;4990319;28;20081;-77
2021/12/19 11:32:18;;;;;;;7.45;2.80;;;;;;;6.99;100.00;103349.06;4990687;28;20034;-78
2021/12/19 11:35:01;;;;;;;10.63;4.15;;;;;;;7.03;100.00;103339.44;4990303;28;20043;-79
2021/12/19 11:37:32;;;;;;;6.47;3.20;;;;;;;7.02;100.00;103338.56;4990605;28;20037;-79
2021/12/19 11:39:58;;;;;;;15.85;5.65;;;;;;;7.04;100.00;103335.94;4989693;28;20034;-79
2021/12/19 11:42:39;;;;;;;6.40;3.28;;;;;;;7.05;100.00;103329.81;4992551;28;20061;-79
2021/12/19 11:45:36;;;;;;;10.85;3.28;;;;;;;7.05;100.00;103335.06;4994324;28;20437;-81
2021/12/19 11:48:15;;;;;;;10.10;3.28;;;;;;;7.05;100.00;103317.50;5014226;28;20049;-77
2021/12/19 11:50:54;;;;;;;11.40;3.00;;;;;;;7.10;100.00;103317.56;5031461;28;20037;-75
2021/12/19 11:53:34;;;;;;;10.77;4.03;;;;;;;7.09;100.00;103313.16;5025870;28;20037;-77
2021/12/19 11:56:04;;;;;;;12.68;3.75;;;;;;;7.14;100.00;103315.84;5036021;28;20029;-77
2021/12/19 11:58:36;;;;;;;13.07;4.57;;;;;;;7.14;100.00;103316.72;5035663;28;20026;-77
2021/12/19 12:01:05;;;;;;;12.02;3.58;;;;;;;7.13;100.00;103314.06;5035755;28;20424;-77
2021/12/19 12:03:58;;;;;;;15.25;3.88;;;;;;;7.12;100.00;103312.28;5045984;28;20515;-78
2021/12/19 12:06:32;;;;;;;14.93;4.30;;;;;;;7.09;100.00;103314.91;5018338;28;20041;-78
2021/12/19 12:09:23;;;;;;;10.70;3.40;;;;;;;7.05;100.00;103306.97;5035542;28;20029;-77
2021/12/19 12:12:02;;;;;;;10.95;2.90;;;;;;;7.08;100.00;103302.59;5035622;28;20038;-77
2021/12/19 12:14:32;;;;;;;10.80;3.20;;;;;;;7.04;100.00;103302.56;5035611;28;20025;-77
2021/12/19 12:17:10;;;;;;;16.15;5.72;;;;;;;7.04;100.00;103304.31;5040771;28;20025;-78
2021/12/19 12:19:48;;;;;;;6.07;3.10;;;;;;;6.97;100.00;103290.22;5036154;28;20112;-78
2021/12/19 12:22:25;;;;;;;14.00;6.05;;;;;;;6.96;100.00;103284.94;5034640;28;20096;-78
2021/12/19 12:25:17;;;;;;;6.82;2.90;;;;;;;6.97;100.00;103292.84;5032929;28;20130;-75
2021/12/19 12:27:46;;;;;;;7.40;2.70;;;;;;;6.95;100.00;103291.06;5034871;28;20022;-77
2021/12/19 12:30:18;;;;;;;9.18;2.40;;;;;;;6.92;100.00;103288.38;5034663;28;20551;-73
2021/12/19 12:32:44;;;;;;;6.63;2.30;;;;;;;6.78;100.00;103297.03;5031752;28;20037;-77